createdAt,value
2018-03-14T00:00:20.182Z,67
2018-03-14T00:01:22.616Z,67.2
2018-03-14T00:02:25.331Z,67.2
2018-03-14T00:03:27.776Z,67.2
2018-03-14T00:04:30.205Z,67.4
2018-03-14T00:05:32.635Z,67.4
2018-03-14T00:06:35.061Z,67.3
2018-03-14T00:07:37.496Z,67.2
2018-03-14T00:08:39.917Z,67.1
2018-03-14T00:09:42.658Z,67
2018-03-14T00:10:45.074Z,67
2018-03-14T00:11:47.846Z,67.1
2018-03-14T00:12:50.278Z,67.1
2018-03-14T00:13:52.707Z,67.1
2018-03-14T00:14:55.424Z,67.3
2018-03-14T00:15:57.852Z,67.3
2018-03-14T00:17:00.280Z,67.1
2018-03-14T00:18:03.029Z,67.1
2018-03-14T00:19:05.453Z,67
2018-03-14T00:20:07.881Z,67.1
2018-03-14T00:21:10.314Z,67.2
2018-03-14T00:22:12.759Z,67.2
2018-03-14T00:23:15.190Z,67.1
2018-03-14T00:24:17.930Z,67.1
2018-03-14T00:25:20.657Z,67.1
2018-03-14T00:26:23.087Z,67
2018-03-14T00:27:25.504Z,67
2018-03-14T00:28:27.929Z,67
2018-03-14T00:29:30.662Z,67.1
2018-03-14T00:30:33.095Z,67.2
2018-03-14T00:31:35.839Z,67.2
2018-03-14T00:32:38.273Z,67.2
2018-03-14T00:33:40.700Z,67.2
2018-03-14T00:34:43.133Z,67.2
2018-03-14T00:35:45.563Z,67.3
2018-03-14T00:36:47.991Z,67.3
2018-03-14T00:37:50.721Z,67.3
2018-03-14T00:38:53.157Z,67.2
2018-03-14T00:39:55.893Z,67.2
2018-03-14T00:40:58.334Z,67.1
2018-03-14T00:42:01.057Z,67
2018-03-14T00:43:03.781Z,67
2018-03-14T00:44:06.210Z,67.1
2018-03-14T00:45:08.656Z,67.3
2018-03-14T00:46:11.699Z,67.3
2018-03-14T00:47:14.139Z,67.3
2018-03-14T00:48:16.552Z,67.2
2018-03-14T00:49:18.988Z,67.3
2018-03-14T00:50:21.421Z,67.1
2018-03-14T00:51:24.152Z,67.3
2018-03-14T00:52:26.576Z,67.4
2018-03-14T00:53:29.009Z,67.2
2018-03-14T00:54:31.448Z,67.2
2018-03-14T00:55:33.860Z,67
2018-03-14T00:56:36.288Z,67.2
2018-03-14T00:57:38.708Z,67.3
2018-03-14T00:58:41.135Z,67.3
2018-03-14T00:59:43.898Z,67.4
2018-03-14T01:00:46.326Z,67.5
2018-03-14T01:01:49.079Z,67.4
2018-03-14T01:02:51.513Z,67.4
2018-03-14T01:03:53.939Z,67.3
2018-03-14T01:04:56.368Z,67.3
2018-03-14T01:05:59.086Z,67.1
2018-03-14T01:07:01.510Z,67.1
2018-03-14T01:08:04.234Z,67.2
2018-03-14T01:09:06.660Z,67.3
2018-03-14T01:10:10.238Z,67.4
2018-03-14T01:11:12.983Z,67.4
2018-03-14T01:12:15.413Z,67.3
2018-03-14T01:13:17.844Z,67.3
2018-03-14T01:14:20.260Z,67.2
2018-03-14T01:15:22.695Z,67.2
2018-03-14T01:16:25.127Z,67.4
2018-03-14T01:17:27.555Z,67.3
2018-03-14T01:18:29.983Z,67.3
2018-03-14T01:19:32.732Z,67.1
2018-03-14T01:20:35.566Z,67
2018-03-14T01:21:38.013Z,67
2018-03-14T01:22:40.429Z,67
2018-03-14T01:23:43.168Z,67
2018-03-14T01:24:45.601Z,67.1
2018-03-14T01:25:48.036Z,67.3
2018-03-14T01:26:50.460Z,67.2
2018-03-14T01:27:52.881Z,67.3
2018-03-14T01:28:55.319Z,67.2
2018-03-14T01:29:57.739Z,67.2
2018-03-14T01:31:00.161Z,67.3
2018-03-14T01:32:02.921Z,67.3
2018-03-14T01:33:05.346Z,67
2018-03-14T01:34:07.776Z,67
2018-03-14T01:35:10.212Z,67.1
2018-03-14T01:36:12.624Z,67.1
2018-03-14T01:37:15.053Z,67.2
2018-03-14T01:38:17.784Z,67.2
2018-03-14T01:39:20.862Z,67.1
2018-03-14T01:40:23.290Z,67.1
2018-03-14T01:41:26.025Z,67.1
2018-03-14T01:42:28.452Z,67.1
2018-03-14T01:43:31.624Z,67
2018-03-14T01:44:34.049Z,67.1
2018-03-14T01:45:36.460Z,67.1
2018-03-14T01:46:38.899Z,67
2018-03-14T01:47:41.324Z,67
2018-03-14T01:48:44.079Z,67
2018-03-14T01:49:46.510Z,67
2018-03-14T01:50:49.593Z,67
2018-03-14T01:51:52.018Z,67
2018-03-14T01:52:54.458Z,67
2018-03-14T01:53:56.884Z,67
2018-03-14T01:54:59.311Z,67
2018-03-14T01:56:01.731Z,66.9
2018-03-14T01:57:04.465Z,67.1
2018-03-14T01:58:07.205Z,68
2018-03-14T01:59:09.936Z,68.2
2018-03-14T02:00:12.665Z,68.2
2018-03-14T02:01:15.081Z,68.3
2018-03-14T02:02:17.518Z,68.4
2018-03-14T02:03:19.945Z,68.3
2018-03-14T02:04:22.378Z,68.3
2018-03-14T02:05:24.807Z,68.4
2018-03-14T02:06:27.233Z,68.3
2018-03-14T02:07:29.647Z,68.3
2018-03-14T02:08:32.080Z,68.4
2018-03-14T02:09:34.496Z,67.4
2018-03-14T02:10:36.928Z,67.5
2018-03-14T02:11:39.709Z,67.4
2018-03-14T02:12:42.461Z,67.4
2018-03-14T02:13:44.888Z,67.5
2018-03-14T02:14:47.945Z,67.5
2018-03-14T02:15:50.677Z,67.4
2018-03-14T02:16:53.122Z,67.3
2018-03-14T02:17:55.551Z,67.3
2018-03-14T02:18:57.983Z,67.4
2018-03-14T02:20:00.400Z,67.4
2018-03-14T02:21:02.842Z,67.2
2018-03-14T02:22:05.264Z,67.2
2018-03-14T02:23:07.683Z,67.1
2018-03-14T02:24:10.428Z,67.1
2018-03-14T02:25:13.155Z,67.2
2018-03-14T02:26:15.574Z,67.3
2018-03-14T02:27:18.013Z,67.3
2018-03-14T02:28:20.436Z,67.3
2018-03-14T02:29:24.102Z,67.4
2018-03-14T02:30:26.538Z,67.4
2018-03-14T02:31:28.964Z,67.3
2018-03-14T02:32:31.680Z,67.3
2018-03-14T02:33:34.118Z,67.5
2018-03-14T02:34:36.538Z,67.5
2018-03-14T02:35:40.162Z,67.4
2018-03-14T02:36:42.589Z,67.3
2018-03-14T02:37:45.006Z,67.1
2018-03-14T02:38:47.434Z,67.2
2018-03-14T02:39:49.857Z,67.3
2018-03-14T02:40:52.287Z,67.2
2018-03-14T02:41:54.710Z,67.2
2018-03-14T02:42:57.141Z,67.2
2018-03-14T02:43:59.579Z,67.3
2018-03-14T02:45:01.990Z,68.3
2018-03-14T02:46:05.005Z,67.6
2018-03-14T02:47:07.431Z,67.6
2018-03-14T02:48:09.856Z,67.5
2018-03-14T02:49:12.285Z,67.4
2018-03-14T02:50:14.709Z,67.4
2018-03-14T02:51:17.129Z,67.4
2018-03-14T02:52:19.569Z,67.4
2018-03-14T02:53:21.992Z,67.4
2018-03-14T02:54:24.417Z,67.3
2018-03-14T02:55:26.845Z,67.2
2018-03-14T02:56:29.271Z,67.3
2018-03-14T02:57:31.695Z,67.4
2018-03-14T02:58:34.137Z,68.3
2018-03-14T02:59:36.557Z,67.4
2018-03-14T03:00:39.269Z,67.5
2018-03-14T03:01:41.701Z,68.3
2018-03-14T03:02:44.122Z,68.4
2018-03-14T03:03:46.560Z,68.5
2018-03-14T03:04:48.993Z,68.6
2018-03-14T03:05:51.415Z,68.7
2018-03-14T03:06:54.135Z,68.7
2018-03-14T03:07:56.569Z,68.6
2018-03-14T03:08:58.979Z,68.6
2018-03-14T03:10:01.405Z,68.5
2018-03-14T03:11:03.844Z,67.6
2018-03-14T03:12:06.270Z,68.5
2018-03-14T03:13:09.007Z,67.6
2018-03-14T03:14:11.503Z,67.6
2018-03-14T03:15:13.859Z,67.6
2018-03-14T03:16:16.299Z,67.7
2018-03-14T03:17:18.720Z,67.6
2018-03-14T03:18:21.439Z,67.6
2018-03-14T03:19:23.866Z,67.6
2018-03-14T03:20:26.296Z,67.6
2018-03-14T03:21:28.725Z,67.5
2018-03-14T03:22:31.157Z,67.5
2018-03-14T03:23:33.583Z,67.5
2018-03-14T03:24:36.017Z,67.6
2018-03-14T03:25:38.451Z,67.7
2018-03-14T03:26:40.876Z,67.6
2018-03-14T03:27:43.318Z,67.5
2018-03-14T03:28:45.739Z,67.5
2018-03-14T03:29:48.160Z,67.6
2018-03-14T03:30:50.883Z,67.5
2018-03-14T03:31:53.302Z,67.6
2018-03-14T03:32:55.725Z,67.6
2018-03-14T03:33:58.440Z,67.5
2018-03-14T03:35:00.871Z,67.5
2018-03-14T03:36:03.302Z,67.5
2018-03-14T03:37:06.017Z,67.5
2018-03-14T03:38:08.447Z,67.4
2018-03-14T03:39:10.883Z,67.4
2018-03-14T03:40:13.305Z,67.2
2018-03-14T03:41:15.744Z,67.2
2018-03-14T03:42:18.163Z,67.3
2018-03-14T03:43:20.587Z,67.3
2018-03-14T03:44:23.026Z,67.3
2018-03-14T03:45:25.445Z,67.2
2018-03-14T03:46:27.869Z,67.3
2018-03-14T03:47:30.298Z,67.2
2018-03-14T03:48:32.719Z,67.2
2018-03-14T03:49:35.154Z,67.3
2018-03-14T03:50:37.629Z,67.2
2018-03-14T03:51:39.998Z,67.2
2018-03-14T03:52:42.440Z,67.3
2018-03-14T03:53:44.867Z,67.1
2018-03-14T03:54:47.572Z,67.1
2018-03-14T03:55:49.999Z,67.1
2018-03-14T03:56:52.439Z,67.1
2018-03-14T03:57:54.861Z,67.1
2018-03-14T03:58:57.278Z,67.1
2018-03-14T04:00:00.283Z,67.1
2018-03-14T04:01:02.710Z,67.1
2018-03-14T04:02:05.430Z,67
2018-03-14T04:03:07.857Z,67.1
2018-03-14T04:04:10.278Z,67.3
2018-03-14T04:05:12.707Z,67.4
2018-03-14T04:06:15.143Z,67.5
2018-03-14T04:07:17.574Z,67.6
2018-03-14T04:08:19.998Z,67.6
2018-03-14T04:09:22.721Z,67.6
2018-03-14T04:10:25.460Z,67.8
2018-03-14T04:11:28.178Z,67.6
2018-03-14T04:12:30.600Z,67.5
2018-03-14T04:13:33.025Z,67.5
2018-03-14T04:14:35.496Z,67.5
2018-03-14T04:15:37.874Z,67.6
2018-03-14T04:16:40.298Z,67.6
2018-03-14T04:17:42.719Z,67.6
2018-03-14T04:18:45.147Z,67.5
2018-03-14T04:19:47.582Z,67.5
2018-03-14T04:20:50.008Z,67.5
2018-03-14T04:21:52.440Z,67.5
2018-03-14T04:22:54.854Z,67.4
2018-03-14T04:23:57.325Z,67.4
2018-03-14T04:24:59.714Z,67.2
2018-03-14T04:26:02.428Z,67.2
2018-03-14T04:27:04.863Z,67.3
2018-03-14T04:28:07.572Z,67.2
2018-03-14T04:29:09.994Z,67.2
2018-03-14T04:30:12.720Z,67.2
2018-03-14T04:31:15.155Z,67
2018-03-14T04:32:17.876Z,67
2018-03-14T04:33:20.599Z,67
2018-03-14T04:34:23.032Z,67.1
2018-03-14T04:35:25.456Z,67.2
2018-03-14T04:36:28.180Z,67.3
2018-03-14T04:37:30.598Z,67.3
2018-03-14T04:38:33.025Z,67.3
2018-03-14T04:39:35.464Z,67.3
2018-03-14T04:40:37.886Z,67.3
2018-03-14T04:41:40.304Z,67.2
2018-03-14T04:42:42.732Z,67.1
2018-03-14T04:43:45.158Z,67
2018-03-14T04:44:47.892Z,67
2018-03-14T04:45:50.320Z,67
2018-03-14T04:46:52.738Z,67.1
2018-03-14T04:47:55.168Z,67.2
2018-03-14T04:48:57.611Z,67.4
2018-03-14T04:50:00.036Z,67.3
2018-03-14T04:51:02.467Z,67.4
2018-03-14T04:52:05.183Z,67.5
2018-03-14T04:53:07.614Z,67.5
2018-03-14T04:54:10.032Z,67.3
2018-03-14T04:55:12.459Z,67.2
2018-03-14T04:56:14.887Z,67.2
2018-03-14T04:57:17.323Z,67.2
2018-03-14T04:58:19.745Z,67.2
2018-03-14T04:59:22.468Z,67.2
2018-03-14T05:00:24.894Z,67.3
2018-03-14T05:01:27.332Z,67.3
2018-03-14T05:02:29.759Z,67.3
2018-03-14T05:03:32.761Z,67.3
2018-03-14T05:04:35.176Z,67.4
2018-03-14T05:05:37.912Z,67.4
2018-03-14T05:06:40.324Z,67.3
2018-03-14T05:07:42.763Z,67.4
2018-03-14T05:08:45.185Z,67.3
2018-03-14T05:09:47.898Z,67.3
2018-03-14T05:10:50.330Z,67.3
2018-03-14T05:11:52.760Z,67.3
2018-03-14T05:12:55.336Z,67.3
2018-03-14T05:13:58.090Z,67.1
2018-03-14T05:15:00.504Z,67.1
2018-03-14T05:16:02.933Z,67
2018-03-14T05:17:05.365Z,67
2018-03-14T05:18:07.793Z,67.1
2018-03-14T05:19:10.507Z,67
2018-03-14T05:20:12.927Z,67.1
2018-03-14T05:21:15.637Z,67
2018-03-14T05:22:18.051Z,67.1
2018-03-14T05:23:20.479Z,67.1
2018-03-14T05:24:22.920Z,67
2018-03-14T05:25:25.355Z,67
2018-03-14T05:26:27.792Z,67.1
2018-03-14T05:27:30.509Z,67.1
2018-03-14T05:28:32.944Z,67
2018-03-14T05:29:35.676Z,67
2018-03-14T05:30:38.392Z,67
2018-03-14T05:31:40.810Z,67
2018-03-14T05:32:43.525Z,67
2018-03-14T05:33:46.243Z,66.9
2018-03-14T05:34:48.672Z,66.9
2018-03-14T05:35:51.393Z,66.9
2018-03-14T05:36:53.816Z,67
2018-03-14T05:37:56.237Z,66.8
2018-03-14T05:38:58.677Z,66.7
2018-03-14T05:40:01.095Z,66.7
2018-03-14T05:41:03.521Z,66.8
2018-03-14T05:42:05.954Z,66.8
2018-03-14T05:43:08.383Z,66.8
2018-03-14T05:44:10.818Z,66.8
2018-03-14T05:45:13.250Z,66.8
2018-03-14T05:46:15.662Z,66.9
2018-03-14T05:47:18.088Z,67
2018-03-14T05:48:20.525Z,67
2018-03-14T05:49:22.950Z,67
2018-03-14T05:50:25.380Z,67
2018-03-14T05:51:27.807Z,66.9
2018-03-14T05:52:30.240Z,67
2018-03-14T05:53:32.661Z,67
2018-03-14T05:54:35.091Z,67.1
2018-03-14T05:55:37.814Z,67.1
2018-03-14T05:56:40.249Z,67
2018-03-14T05:57:42.667Z,67
2018-03-14T05:58:45.098Z,67
2018-03-14T05:59:47.522Z,67
2018-03-14T06:00:49.950Z,67
2018-03-14T06:01:52.373Z,66.8
2018-03-14T06:02:54.800Z,67
2018-03-14T06:03:57.225Z,66.9
2018-03-14T06:04:59.669Z,67
2018-03-14T06:06:02.084Z,67
2018-03-14T06:07:04.512Z,67.1
2018-03-14T06:08:06.933Z,67.1
2018-03-14T06:09:09.362Z,67
2018-03-14T06:10:11.794Z,67.1
2018-03-14T06:11:14.798Z,67.2
2018-03-14T06:12:17.215Z,67
2018-03-14T06:13:19.648Z,67.1
2018-03-14T06:14:22.080Z,67.1
2018-03-14T06:15:24.508Z,67.3
2018-03-14T06:16:26.953Z,67.3
2018-03-14T06:17:29.357Z,67.2
2018-03-14T06:18:31.782Z,67.2
2018-03-14T06:19:34.531Z,67.1
2018-03-14T06:20:37.254Z,67
2018-03-14T06:21:39.677Z,67
2018-03-14T06:22:42.112Z,67
2018-03-14T06:23:44.543Z,67.1
2018-03-14T06:24:46.969Z,67.2
2018-03-14T06:25:49.683Z,67.1
2018-03-14T06:26:52.117Z,67.1
2018-03-14T06:27:54.533Z,67.2
2018-03-14T06:28:56.961Z,67.3
2018-03-14T06:29:59.386Z,67.2
2018-03-14T06:31:01.805Z,67
2018-03-14T06:32:04.239Z,67
2018-03-14T06:33:06.672Z,67
2018-03-14T06:34:09.107Z,66.9
2018-03-14T06:35:11.829Z,66.8
2018-03-14T06:36:14.236Z,66.8
2018-03-14T06:37:16.674Z,66.9
2018-03-14T06:38:19.098Z,66.9
2018-03-14T06:39:21.532Z,67
2018-03-14T06:40:23.959Z,67
2018-03-14T06:41:26.676Z,67
2018-03-14T06:42:29.108Z,67
2018-03-14T06:43:31.546Z,67.1
2018-03-14T06:44:33.961Z,67.2
2018-03-14T06:45:36.386Z,67.2
2018-03-14T06:46:39.094Z,67.2
2018-03-14T06:47:41.513Z,67.2
2018-03-14T06:48:43.943Z,67.2
2018-03-14T06:49:46.380Z,67.1
2018-03-14T06:50:48.813Z,67.2
2018-03-14T06:51:51.240Z,67.3
2018-03-14T06:52:53.663Z,67.2
2018-03-14T06:53:56.085Z,67.1
2018-03-14T06:54:58.531Z,67.1
2018-03-14T06:56:00.962Z,67.1
2018-03-14T06:57:03.382Z,67.2
2018-03-14T06:58:05.813Z,67.3
2018-03-14T06:59:08.521Z,67.3
2018-03-14T07:00:10.950Z,67.2
2018-03-14T07:01:13.388Z,67.2
2018-03-14T07:02:15.809Z,67.1
2018-03-14T07:03:18.229Z,67.2
2018-03-14T07:04:20.949Z,67.1
2018-03-14T07:05:23.380Z,67.1
2018-03-14T07:06:25.815Z,67
2018-03-14T07:07:28.235Z,67
2018-03-14T07:08:30.946Z,67
2018-03-14T07:09:33.384Z,67
2018-03-14T07:10:35.839Z,67.1
2018-03-14T07:11:38.269Z,67.2
2018-03-14T07:12:40.693Z,67
2018-03-14T07:13:43.124Z,66.9
2018-03-14T07:14:45.554Z,66.8
2018-03-14T07:15:48.275Z,66.9
2018-03-14T07:16:50.693Z,66.9
2018-03-14T07:17:53.117Z,66.9
2018-03-14T07:18:55.557Z,66.8
2018-03-14T07:19:57.977Z,66.8
2018-03-14T07:21:00.702Z,66.9
2018-03-14T07:22:03.128Z,67
2018-03-14T07:23:05.554Z,67
2018-03-14T07:24:08.283Z,67
2018-03-14T07:25:10.711Z,67
2018-03-14T07:26:13.128Z,67
2018-03-14T07:27:15.569Z,67
2018-03-14T07:28:17.985Z,67.1
2018-03-14T07:29:20.413Z,67.2
2018-03-14T07:30:22.846Z,67.2
2018-03-14T07:31:25.279Z,67.1
2018-03-14T07:32:27.985Z,67.2
2018-03-14T07:33:30.418Z,67.2
2018-03-14T07:34:32.845Z,67.3
2018-03-14T07:35:35.593Z,67.1
2018-03-14T07:36:38.041Z,67.1
2018-03-14T07:37:40.455Z,67.2
2018-03-14T07:38:42.875Z,67.1
2018-03-14T07:39:45.306Z,67
2018-03-14T07:40:48.008Z,66.9
2018-03-14T07:41:50.443Z,66.9
2018-03-14T07:42:52.861Z,66.8
2018-03-14T07:43:55.290Z,66.9
2018-03-14T07:44:57.720Z,66.9
2018-03-14T07:46:00.160Z,66.8
2018-03-14T07:47:02.608Z,66.9
2018-03-14T07:48:05.046Z,66.9
2018-03-14T07:49:07.759Z,66.9
2018-03-14T07:50:10.182Z,66.8
2018-03-14T07:51:12.611Z,67
2018-03-14T07:52:15.331Z,66.9
2018-03-14T07:53:17.770Z,66.9
2018-03-14T07:54:20.182Z,66.8
2018-03-14T07:55:22.620Z,66.8
2018-03-14T07:56:25.051Z,66.8
2018-03-14T07:57:27.480Z,67
2018-03-14T07:58:29.923Z,66.9
2018-03-14T07:59:32.341Z,66.8
2018-03-14T08:00:34.777Z,66.8
2018-03-14T08:01:37.217Z,66.7
2018-03-14T08:02:39.640Z,66.6
2018-03-14T08:03:42.069Z,66.6
2018-03-14T08:04:44.777Z,66.6
2018-03-14T08:05:47.232Z,66.6
2018-03-14T08:06:49.643Z,66.6
2018-03-14T08:07:52.072Z,66.5
2018-03-14T08:08:54.783Z,66.5
2018-03-14T08:09:57.210Z,66.6
2018-03-14T08:10:59.633Z,66.6
2018-03-14T08:12:02.126Z,66.5
2018-03-14T08:13:04.548Z,66.6
2018-03-14T08:14:06.973Z,66.7
2018-03-14T08:15:09.691Z,66.9
2018-03-14T08:16:12.126Z,66.8
2018-03-14T08:17:14.541Z,67
2018-03-14T08:18:16.980Z,66.9
2018-03-14T08:19:19.407Z,66.8
2018-03-14T08:20:21.834Z,66.8
2018-03-14T08:21:24.331Z,66.8
2018-03-14T08:22:26.686Z,66.7
2018-03-14T08:23:29.435Z,66.8
2018-03-14T08:24:31.872Z,66.7
2018-03-14T08:25:34.293Z,66.8
2018-03-14T08:26:36.730Z,66.8
2018-03-14T08:27:39.163Z,67
2018-03-14T08:28:42.181Z,67
2018-03-14T08:29:44.604Z,66.8
2018-03-14T08:30:47.032Z,66.7
2018-03-14T08:31:49.463Z,66.7
2018-03-14T08:32:52.191Z,66.7
2018-03-14T08:33:54.605Z,66.7
2018-03-14T08:34:57.041Z,66.7
2018-03-14T08:35:59.755Z,66.7
2018-03-14T08:37:02.195Z,66.8
2018-03-14T08:38:04.626Z,66.7
2018-03-14T08:39:07.056Z,66.8
2018-03-14T08:40:09.471Z,66.8
2018-03-14T08:41:12.199Z,66.8
2018-03-14T08:42:14.635Z,66.7
2018-03-14T08:43:17.372Z,66.9
2018-03-14T08:44:19.805Z,67
2018-03-14T08:45:22.230Z,67
2018-03-14T08:46:24.660Z,67
2018-03-14T08:47:27.390Z,66.8
2018-03-14T08:48:29.817Z,66.9
2018-03-14T08:49:32.237Z,66.8
2018-03-14T08:50:34.678Z,66.8
2018-03-14T08:51:37.096Z,66.7
2018-03-14T08:52:39.534Z,66.5
2018-03-14T08:53:41.963Z,66.5
2018-03-14T08:54:44.390Z,66.4
2018-03-14T08:55:46.856Z,66.4
2018-03-14T08:56:49.248Z,66.5
2018-03-14T08:57:51.671Z,66.4
2018-03-14T08:58:54.093Z,66.5
2018-03-14T08:59:56.512Z,66.4
2018-03-14T09:00:58.954Z,66.4
2018-03-14T09:02:01.394Z,66.5
2018-03-14T09:03:03.827Z,66.4
2018-03-14T09:04:06.257Z,66.4
2018-03-14T09:05:08.683Z,66.4
2018-03-14T09:06:11.116Z,66.4
2018-03-14T09:07:14.119Z,66.4
2018-03-14T09:08:16.545Z,66.4
2018-03-14T09:09:18.981Z,66.4
2018-03-14T09:10:21.978Z,66.4
2018-03-14T09:11:24.691Z,66.3
2018-03-14T09:12:27.119Z,66.3
2018-03-14T09:13:29.549Z,66.3
2018-03-14T09:14:31.967Z,66.3
2018-03-14T09:15:34.698Z,66.2
2018-03-14T09:16:37.124Z,66.2
2018-03-14T09:17:39.550Z,66.1
2018-03-14T09:18:41.981Z,66.2
2018-03-14T09:19:44.416Z,66.1
2018-03-14T09:20:47.169Z,66
2018-03-14T09:21:49.599Z,66.2
2018-03-14T09:22:52.029Z,66.1
2018-03-14T09:23:54.463Z,66
2018-03-14T09:24:56.895Z,66.1
2018-03-14T09:25:59.320Z,65.9
2018-03-14T09:27:01.748Z,65.8
2018-03-14T09:28:04.173Z,65.9
2018-03-14T09:29:06.603Z,66
2018-03-14T09:30:09.030Z,66
2018-03-14T09:31:11.471Z,66
2018-03-14T09:32:14.186Z,65.9
2018-03-14T09:33:16.634Z,65.9
2018-03-14T09:34:19.044Z,65.8
2018-03-14T09:35:22.052Z,65.8
2018-03-14T09:36:24.496Z,65.5
2018-03-14T09:37:26.924Z,65.6
2018-03-14T09:38:29.359Z,65.5
2018-03-14T09:39:32.106Z,65.6
2018-03-14T09:40:34.526Z,65.7
2018-03-14T09:41:36.969Z,65.6
2018-03-14T09:42:39.406Z,65.7
2018-03-14T09:43:41.831Z,65.5
2018-03-14T09:44:44.260Z,65.5
2018-03-14T09:45:46.691Z,65.6
2018-03-14T09:46:49.407Z,65.7
2018-03-14T09:47:51.829Z,65.6
2018-03-14T09:48:54.272Z,65.5
2018-03-14T09:49:56.707Z,65.4
2018-03-14T09:50:59.144Z,65.5
2018-03-14T09:52:01.578Z,65.3
2018-03-14T09:53:04.002Z,65.2
2018-03-14T09:54:06.783Z,65.3
2018-03-14T09:55:09.186Z,65.4
2018-03-14T09:56:11.608Z,65.5
2018-03-14T09:57:14.039Z,65.5
2018-03-14T09:58:16.765Z,65.6
2018-03-14T09:59:19.204Z,65.7
2018-03-14T10:00:21.636Z,65.6
2018-03-14T10:01:24.358Z,65.6
2018-03-14T10:02:26.794Z,65.7
2018-03-14T10:03:29.235Z,65.6
2018-03-14T10:04:31.979Z,65.5
2018-03-14T10:05:34.400Z,65.5
2018-03-14T10:06:36.825Z,65.4
2018-03-14T10:07:39.565Z,65.5
2018-03-14T10:08:42.287Z,65.5
2018-03-14T10:09:44.712Z,65.6
2018-03-14T10:10:47.431Z,65.7
2018-03-14T10:11:49.862Z,65.8
2018-03-14T10:12:52.302Z,66.1
2018-03-14T10:13:54.737Z,66.5
2018-03-14T10:14:57.442Z,66.9
2018-03-14T10:15:59.887Z,67.2
2018-03-14T10:17:02.371Z,68
2018-03-14T10:18:05.040Z,68.8
2018-03-14T10:19:07.808Z,69
2018-03-14T10:20:10.214Z,68.8
2018-03-14T10:21:12.654Z,68.6
2018-03-14T10:22:15.363Z,68.7
2018-03-14T10:23:18.089Z,69.1
2018-03-14T10:24:20.808Z,69.9
2018-03-14T10:25:23.257Z,70.9
2018-03-14T10:26:25.696Z,71.1
2018-03-14T10:27:28.425Z,70.8
2018-03-14T10:28:30.861Z,70.7
2018-03-14T10:29:33.306Z,70.1
2018-03-14T10:30:35.743Z,69.6
2018-03-14T10:31:38.182Z,68.6
2018-03-14T10:32:40.911Z,67.8
2018-03-14T10:33:43.351Z,67.5
2018-03-14T10:34:45.788Z,67.9
2018-03-14T10:35:48.219Z,68.3
2018-03-14T10:36:50.696Z,68.7
2018-03-14T10:37:53.085Z,69.2
2018-03-14T10:38:55.823Z,69.4
2018-03-14T10:39:58.262Z,68.9
2018-03-14T10:41:00.981Z,68
2018-03-14T10:42:03.740Z,67.3
2018-03-14T10:43:06.473Z,66.6
2018-03-14T10:44:08.921Z,66.6
2018-03-14T10:45:11.360Z,65.8
2018-03-14T10:46:13.797Z,64.9
2018-03-14T10:47:16.239Z,64.1
2018-03-14T10:48:18.977Z,63.5
2018-03-14T10:49:21.414Z,63
2018-03-14T10:50:23.854Z,62.6
2018-03-14T10:51:26.295Z,62.4
2018-03-14T10:52:28.736Z,62.1
2018-03-14T10:53:31.452Z,61.8
2018-03-14T10:54:34.199Z,61.7
2018-03-14T10:55:36.630Z,61.6
2018-03-14T10:56:39.364Z,61.4
2018-03-14T10:57:41.806Z,61.2
2018-03-14T10:58:44.241Z,61.2
2018-03-14T10:59:46.679Z,61.1
2018-03-14T11:00:49.412Z,61.2
2018-03-14T11:01:52.137Z,61.3
2018-03-14T11:02:54.892Z,61.4
2018-03-14T11:03:57.602Z,61.4
2018-03-14T11:05:00.042Z,61.4
2018-03-14T11:06:02.478Z,61.4
2018-03-14T11:07:04.912Z,61.5
2018-03-14T11:08:07.633Z,61.5
2018-03-14T11:09:10.072Z,61.6
2018-03-14T11:10:12.503Z,61.6
2018-03-14T11:11:15.243Z,61.6
2018-03-14T11:12:17.684Z,61.5
2018-03-14T11:13:20.129Z,61.5
2018-03-14T11:14:22.552Z,61.4
2018-03-14T11:15:25.000Z,61.5
2018-03-14T11:16:27.423Z,61.5
2018-03-14T11:17:29.871Z,61.8
2018-03-14T11:18:32.305Z,61.2
2018-03-14T11:19:34.733Z,61.4
2018-03-14T11:20:37.166Z,61.7
2018-03-14T11:21:39.652Z,61.6
2018-03-14T11:22:42.042Z,62.1
2018-03-14T11:23:44.766Z,62.2
2018-03-14T11:24:47.202Z,62.4
2018-03-14T11:25:49.914Z,62.2
2018-03-14T11:26:52.361Z,62.4
2018-03-14T11:27:55.378Z,62.5
2018-03-14T11:28:57.811Z,62.6
2018-03-14T11:30:00.248Z,62.1
2018-03-14T11:31:02.688Z,62.5
2018-03-14T11:32:05.179Z,61.9
2018-03-14T11:33:07.612Z,62.1
2018-03-14T11:34:10.337Z,61.7
2018-03-14T11:35:13.335Z,61.7
2018-03-14T11:36:15.780Z,61.6
2018-03-14T11:37:18.217Z,61.7
2018-03-14T11:38:20.648Z,61.7
2018-03-14T11:39:23.097Z,61.7
2018-03-14T11:40:25.524Z,61.6
2018-03-14T11:41:27.963Z,61.5
2018-03-14T11:42:30.385Z,61.5
2018-03-14T11:43:32.818Z,61.5
2018-03-14T11:44:35.279Z,61.3
2018-03-14T11:45:38.051Z,61.3
2018-03-14T11:46:40.485Z,61.3
2018-03-14T11:47:42.917Z,61.1
2018-03-14T11:48:45.359Z,61.1
2018-03-14T11:49:47.791Z,61.1
2018-03-14T11:50:50.227Z,61
2018-03-14T11:51:52.656Z,61.1
2018-03-14T11:52:55.103Z,61
2018-03-14T11:53:57.824Z,61.1
2018-03-14T11:55:00.263Z,61.3
2018-03-14T11:56:02.690Z,61.3
2018-03-14T11:57:05.132Z,61.3
2018-03-14T11:58:07.563Z,61.5
2018-03-14T11:59:10.006Z,61.5
2018-03-14T12:00:12.430Z,61.6
2018-03-14T12:01:14.874Z,61.6
2018-03-14T12:02:17.291Z,61.7
2018-03-14T12:03:19.727Z,61.7
2018-03-14T12:04:22.458Z,61.7
2018-03-14T12:05:25.461Z,61.8
2018-03-14T12:06:27.897Z,61.6
2018-03-14T12:07:30.330Z,61.7
2018-03-14T12:08:32.769Z,61.7
2018-03-14T12:09:35.211Z,61.6
2018-03-14T12:10:37.638Z,61.5
2018-03-14T12:11:40.061Z,61.5
2018-03-14T12:12:42.496Z,61.5
2018-03-14T12:13:45.218Z,61.6
2018-03-14T12:14:47.647Z,61.5
2018-03-14T12:15:50.067Z,61.5
2018-03-14T12:16:52.502Z,61.7
2018-03-14T12:17:54.935Z,61.6
2018-03-14T12:18:57.380Z,61.5
2018-03-14T12:19:59.811Z,61.6
2018-03-14T12:21:02.533Z,61.7
2018-03-14T12:22:04.961Z,61.7
2018-03-14T12:23:07.397Z,61.7
2018-03-14T12:24:09.826Z,61.7
2018-03-14T12:25:12.261Z,61.8
2018-03-14T12:26:14.702Z,61.9
2018-03-14T12:27:17.133Z,61.9
2018-03-14T12:28:19.555Z,62.1
2018-03-14T12:29:21.994Z,62.1
2018-03-14T12:30:24.421Z,62.1
2018-03-14T12:31:26.853Z,62.1
2018-03-14T12:32:29.288Z,62
2018-03-14T12:33:31.726Z,61.9
2018-03-14T12:34:34.156Z,61.9
2018-03-14T12:35:36.895Z,61.8
2018-03-14T12:36:39.333Z,61.8
2018-03-14T12:37:41.757Z,61.9
2018-03-14T12:38:44.473Z,62
2018-03-14T12:39:47.192Z,62.1
2018-03-14T12:40:49.627Z,62.1
2018-03-14T12:41:52.056Z,62.1
2018-03-14T12:42:54.471Z,62.2
2018-03-14T12:43:56.907Z,62.1
2018-03-14T12:44:59.353Z,62.2
2018-03-14T12:46:01.786Z,62.1
2018-03-14T12:47:04.503Z,62.1
2018-03-14T12:48:06.943Z,62
2018-03-14T12:49:09.375Z,62
2018-03-14T12:50:11.800Z,62.1
2018-03-14T12:51:14.227Z,62.1
2018-03-14T12:52:16.979Z,62.1
2018-03-14T12:53:19.692Z,62.1
2018-03-14T12:54:22.413Z,62
2018-03-14T12:55:25.129Z,62
2018-03-14T12:56:27.561Z,61.9
2018-03-14T12:57:30.001Z,61.9
2018-03-14T12:58:32.727Z,61.9
2018-03-14T12:59:35.135Z,61.8
2018-03-14T13:00:37.577Z,61.8
2018-03-14T13:01:40.007Z,61.8
2018-03-14T13:02:42.440Z,61.9
2018-03-14T13:03:44.878Z,62
2018-03-14T13:04:47.311Z,62
2018-03-14T13:05:49.746Z,61.9
2018-03-14T13:06:52.182Z,62
2018-03-14T13:07:54.611Z,62
2018-03-14T13:08:57.322Z,61.9
2018-03-14T13:09:59.753Z,61.9
2018-03-14T13:11:02.480Z,61.9
2018-03-14T13:12:04.911Z,62
2018-03-14T13:13:07.348Z,62
2018-03-14T13:14:09.775Z,61.9
2018-03-14T13:15:12.504Z,61.8
2018-03-14T13:16:14.943Z,61.8
2018-03-14T13:17:17.368Z,61.9
2018-03-14T13:18:20.093Z,61.8
2018-03-14T13:19:22.522Z,61.9
2018-03-14T13:20:24.952Z,61.9
2018-03-14T13:21:27.387Z,62.1
2018-03-14T13:22:29.825Z,62.1
2018-03-14T13:23:32.561Z,62.1
2018-03-14T13:24:34.994Z,62
2018-03-14T13:25:37.517Z,62
2018-03-14T13:26:39.890Z,62
2018-03-14T13:27:42.287Z,61.9
2018-03-14T13:28:44.721Z,61.9
2018-03-14T13:29:47.144Z,61.8
2018-03-14T13:30:49.594Z,61.9
2018-03-14T13:31:52.311Z,62
2018-03-14T13:32:54.828Z,61.8
2018-03-14T13:33:57.168Z,61.8
2018-03-14T13:34:59.898Z,61.7
2018-03-14T13:36:02.325Z,61.7
2018-03-14T13:37:05.049Z,61.7
2018-03-14T13:38:07.759Z,61.8
2018-03-14T13:39:10.487Z,61.7
2018-03-14T13:40:12.913Z,61.7
2018-03-14T13:41:15.353Z,61.6
2018-03-14T13:42:17.770Z,61.6
2018-03-14T13:43:20.208Z,61.5
2018-03-14T13:44:22.955Z,61.6
2018-03-14T13:45:25.383Z,61.6
2018-03-14T13:46:27.807Z,61.5
2018-03-14T13:47:30.587Z,61.5
2018-03-14T13:48:33.253Z,61.6
2018-03-14T13:49:35.674Z,61.6
2018-03-14T13:50:38.402Z,61.6
2018-03-14T13:51:40.848Z,61.7
2018-03-14T13:52:43.281Z,61.7
2018-03-14T13:53:45.710Z,61.6
2018-03-14T13:54:48.144Z,61.5
2018-03-14T13:55:50.576Z,61.4
2018-03-14T13:56:53.015Z,61.4
2018-03-14T13:57:55.449Z,61.5
2018-03-14T13:58:57.891Z,61.5
2018-03-14T14:00:00.309Z,61.5